Time;durP1;ratioP1;P1;durP2;ratioP2;P2;SDS_P1;SDS_P2;PMS_P1;PMS_P2;Temp;Humidity;BMP_temperature;BMP_pressure;BME280_temperature;BME280_humidity;BME280_pressure;Samples;Min_cycle;Max_cycle;Signal;HPM_P1;HPM_P2
2023/12/19 00:01:16;;;;;;;;;;;;;;;6.48;67.28;102191.18;106517;1268;97941;-67
2023/12/19 00:03:44;;;;;;;;;;;;;;;6.46;67.59;102185.94;106504;1268;112201;-65
2023/12/19 00:06:12;;;;;;;;;;;;;;;6.44;67.46;102183.54;106462;1268;108698;-64
2023/12/19 00:08:40;;;;;;;;;;;;;;;6.41;67.58;102181.48;106482;1268;108724;-64
2023/12/19 00:11:09;;;;;;;;;;;;;;;6.41;67.58;102179.19;106509;1268;97972;-64
2023/12/19 00:13:37;;;;;;;;;;;;;;;6.40;67.85;102179.45;106504;1268;96750;-64
2023/12/19 00:16:05;;;;;;;;;;;;;;;6.38;67.91;102178.98;106473;1273;111753;-64
2023/12/19 00:18:33;;;;;;;;;;;;;;;6.38;68.04;102176.34;106467;1268;108347;-66
2023/12/19 00:21:02;;;;;;;;;;;;;;;6.37;67.64;102178.30;106529;1269;108290;-65
2023/12/19 00:23:32;;;;;;;;;;;;;;;6.39;67.80;102185.18;106496;1273;97888;-67
2023/12/19 00:26:00;;;;;;;;;;;;;;;6.41;68.42;102188.29;106536;1268;97763;-68
2023/12/19 00:28:29;;;;;;;;;;;;;;;6.45;68.56;102190.80;106528;1268;111364;-66
2023/12/19 00:30:58;;;;;;;;;;;;;;;6.48;69.14;102198.99;106498;1268;108273;-65
2023/12/19 00:33:26;;;;;;;;;;;;;;;6.50;69.38;102192.68;106580;1268;107150;-65
2023/12/19 00:35:55;;;;;;;;;;;;;;;6.51;69.03;102192.26;106523;1268;97903;-65
2023/12/19 00:38:23;;;;;;;;;;;;;;;6.51;68.99;102190.48;106506;1268;97935;-66
2023/12/19 00:40:51;;;;;;;;;;;;;;;6.50;68.78;102189.12;106509;1268;111323;-67
2023/12/19 00:43:19;;;;;;;;;;;;;;;6.48;68.90;102183.67;106495;1268;107951;-65
2023/12/19 00:45:47;;;;;;;;;;;;;;;6.45;68.70;102186.84;106478;1268;107297;-65
2023/12/19 00:48:15;;;;;;;;;;;;;;;6.41;68.89;102186.30;106479;1268;97948;-65
2023/12/19 00:50:44;;;;;;;;;;;;;;;6.38;69.08;102186.64;106538;1268;97863;-66
2023/12/19 00:53:12;;;;;;;;;;;;;;;6.34;69.17;102183.27;106479;1268;111888;-65
2023/12/19 00:55:40;;;;;;;;;;;;;;;6.29;69.09;102186.73;106397;1275;109229;-66
2023/12/19 00:58:08;;;;;;;;;;;;;;;6.24;68.80;102189.79;106518;1268;107489;-65
2023/12/19 01:00:36;;;;;;;;;;;;;;;6.19;68.67;102190.92;106492;1271;97884;-66
2023/12/19 01:03:04;;;;;;;;;;;;;;;6.11;68.81;102187.73;106511;1268;97859;-65
2023/12/19 01:05:33;;;;;;;;;;;;;;;6.04;68.83;102187.00;106545;1268;112356;-65
2023/12/19 01:08:01;;;;;;;;;;;;;;;5.97;69.30;102184.09;106539;1268;107798;-65
2023/12/19 01:10:30;;;;;;;;;;;;;;;5.90;68.71;102181.17;106502;1268;107938;-66
2023/12/19 01:12:58;;;;;;;;;;;;;;;5.83;68.54;102177.25;106544;1267;97874;-64
2023/12/19 01:15:26;;;;;;;;;;;;;;;5.75;68.42;102175.14;106439;1268;97882;-69
2023/12/19 01:17:55;;;;;;;;;;;;;;;5.66;69.10;102175.52;106484;1268;111615;-69
2023/12/19 01:20:23;;;;;;;;;;;;;;;5.60;69.34;102173.15;106505;1268;107991;-64
2023/12/19 01:22:51;;;;;;;;;;;;;;;5.53;69.42;102176.63;106444;1273;108128;-64
2023/12/19 01:25:19;;;;;;;;;;;;;;;5.48;69.17;102172.24;106503;1268;97879;-64
2023/12/19 01:27:47;;;;;;;;;;;;;;;5.42;69.06;102176.05;106533;1268;97701;-65
2023/12/19 01:30:15;;;;;;;;;;;;;;;5.35;69.54;102172.11;106505;1268;111982;-65
2023/12/19 01:32:44;;;;;;;;;;;;;;;5.29;69.64;102167.19;106471;1268;107973;-65
2023/12/19 01:35:12;;;;;;;;;;;;;;;5.24;69.53;102170.29;106488;1268;108305;-65
2023/12/19 01:37:43;;;;;;;;;;;;;;;5.18;69.79;102165.72;106475;1268;97875;-65
2023/12/19 01:40:11;;;;;;;;;;;;;;;5.13;69.80;102167.71;106502;1268;99155;-64
2023/12/19 01:42:40;;;;;;;;;;;;;;;5.05;69.72;102165.92;106478;1268;111480;-64
2023/12/19 01:45:13;;;;;;;;;;;;;;;4.98;70.15;102167.45;106456;1268;108328;-65
2023/12/19 01:47:43;;;;;;;;;;;;;;;4.91;69.61;102171.29;106487;1268;107409;-64
2023/12/19 01:50:13;;;;;;;;;;;;;;;4.85;70.02;102166.58;106481;1268;98555;-65
2023/12/19 01:52:43;;;;;;;;;;;;;;;4.80;69.94;102163.60;106527;1268;97788;-65
2023/12/19 01:55:13;;;;;;;;;;;;;;;4.76;70.22;102161.63;106483;1268;111967;-65
2023/12/19 01:57:42;;;;;;;;;;;;;;;4.72;70.61;102159.29;106507;1268;107547;-65
2023/12/19 02:00:14;;;;;;;;;;;;;;;4.73;71.32;102155.17;106477;1268;107719;-65
2023/12/19 02:02:43;;;;;;;;;;;;;;;4.75;71.07;102150.11;106443;1268;97875;-65
2023/12/19 02:05:15;;;;;;;;;;;;;;;4.75;71.49;102151.89;106502;1268;97859;-66
2023/12/19 02:07:43;;;;;;;;;;;;;;;4.80;71.58;102149.92;106495;1268;111838;-66
2023/12/19 02:10:13;;;;;;;;;;;;;;;4.82;71.64;102143.95;106509;1268;108407;-67
2023/12/19 02:12:42;;;;;;;;;;;;;;;4.84;71.76;102141.35;106468;1268;107531;-66
2023/12/19 02:15:12;;;;;;;;;;;;;;;4.87;71.60;102140.18;106459;1268;97853;-64
2023/12/19 02:17:40;;;;;;;;;;;;;;;4.89;71.70;102134.98;106440;1268;97846;-66
2023/12/19 02:20:09;;;;;;;;;;;;;;;4.83;71.15;102133.77;106461;1268;110878;-64
2023/12/19 02:22:37;;;;;;;;;;;;;;;4.83;71.28;102133.80;106465;1272;108647;-65
2023/12/19 02:25:06;;;;;;;;;;;;;;;4.83;71.32;102132.20;106476;1268;108253;-65
2023/12/19 02:27:35;;;;;;;;;;;;;;;4.78;71.18;102132.58;106472;1268;97747;-64
2023/12/19 02:30:04;;;;;;;;;;;;;;;4.72;71.09;102133.20;106500;1268;97882;-65
2023/12/19 02:32:33;;;;;;;;;;;;;;;4.66;71.26;102135.91;106411;1271;110746;-65
2023/12/19 02:35:02;;;;;;;;;;;;;;;4.61;71.29;102135.24;106632;1268;108585;-66
2023/12/19 02:37:30;;;;;;;;;;;;;;;4.62;71.83;102136.08;106472;1268;107743;-65
2023/12/19 02:39:58;;;;;;;;;;;;;;;4.66;71.86;102131.98;106468;1273;97885;-66
2023/12/19 02:42:26;;;;;;;;;;;;;;;4.70;72.01;102128.46;106459;1268;97869;-66
2023/12/19 02:44:55;;;;;;;;;;;;;;;4.74;72.03;102127.94;106497;1268;112083;-66
2023/12/19 02:47:23;;;;;;;;;;;;;;;4.69;71.41;102124.57;106458;1268;108243;-65
2023/12/19 02:49:51;;;;;;;;;;;;;;;4.68;71.83;102125.88;106499;1268;108461;-64
2023/12/19 02:52:19;;;;;;;;;;;;;;;4.69;71.67;102127.63;106448;1268;97882;-65
2023/12/19 02:54:47;;;;;;;;;;;;;;;4.69;71.76;102124.05;106436;1268;97878;-65
2023/12/19 02:57:16;;;;;;;;;;;;;;;4.70;71.90;102125.08;106409;1268;111874;-65
2023/12/19 02:59:44;;;;;;;;;;;;;;;4.66;71.85;102125.09;106456;1268;108400;-64
2023/12/19 03:02:12;;;;;;;;;;;;;;;4.60;71.77;102125.33;106380;1268;107294;-64
2023/12/19 03:04:39;;;;;;;;;;;;;;;4.58;71.84;102127.54;106431;1268;97856;-66
2023/12/19 03:07:09;;;;;;;;;;;;;;;4.59;72.00;102126.06;106489;1268;97866;-64
2023/12/19 03:09:37;;;;;;;;;;;;;;;4.57;71.91;102125.97;106457;1268;111778;-64
2023/12/19 03:12:06;;;;;;;;;;;;;;;4.57;71.91;102123.70;106519;1273;110132;-66
2023/12/19 03:14:35;;;;;;;;;;;;;;;4.56;72.02;102125.31;106455;1268;106614;-67
2023/12/19 03:17:03;;;;;;;;;;;;;;;4.54;71.70;102126.98;106441;1268;97959;-68
2023/12/19 03:19:32;;;;;;;;;;;;;;;4.56;71.74;102127.43;106510;1268;97854;-65
2023/12/19 03:22:01;;;;;;;;;;;;;;;4.56;71.44;102128.67;106486;1268;111731;-66
2023/12/19 03:24:30;;;;;;;;;;;;;;;4.53;71.43;102127.56;106481;1268;107766;-64
2023/12/19 03:26:58;;;;;;;;;;;;;;;4.52;71.80;102125.47;106481;1269;108031;-65
2023/12/19 03:29:26;;;;;;;;;;;;;;;4.52;72.02;102124.58;106452;1268;97985;-63
2023/12/19 03:31:54;;;;;;;;;;;;;;;4.51;72.03;102125.34;106497;1272;97905;-66
2023/12/19 03:34:22;;;;;;;;;;;;;;;4.48;72.00;102128.13;106522;1268;112316;-64
2023/12/19 03:36:50;;;;;;;;;;;;;;;4.40;71.86;102127.41;106511;1268;108317;-65
2023/12/19 03:39:19;;;;;;;;;;;;;;;4.32;71.73;102123.61;106428;1272;107934;-65
2023/12/19 03:41:49;;;;;;;;;;;;;;;4.24;71.75;102126.95;106471;1268;97854;-66
2023/12/19 03:44:39;;;;;;;;;;;;;;;4.15;71.45;102127.85;106471;1268;97852;-66
2023/12/19 03:47:09;;;;;;;;;;;;;;;4.06;71.09;102129.27;106466;1268;111927;-65
2023/12/19 03:49:37;;;;;;;;;;;;;;;3.96;70.92;102121.85;106503;1268;108381;-65
2023/12/19 03:52:07;;;;;;;;;;;;;;;3.89;71.36;102126.56;106493;1269;108545;-65
2023/12/19 03:54:35;;;;;;;;;;;;;;;3.82;71.33;102129.67;106458;1269;97888;-66
2023/12/19 03:57:04;;;;;;;;;;;;;;;3.74;71.27;102128.55;106535;1268;97773;-65
2023/12/19 03:59:32;;;;;;;;;;;;;;;3.65;71.09;102124.28;106504;1268;111858;-64
2023/12/19 04:02:01;;;;;;;;;;;;;;;3.56;71.19;102127.09;106516;1268;107375;-65
2023/12/19 04:04:29;;;;;;;;;;;;;;;3.47;71.16;102120.50;106532;1268;108416;-64
2023/12/19 04:06:57;;;;;;;;;;;;;;;3.38;71.34;102120.48;106513;1268;97739;-64
2023/12/19 04:09:25;;;;;;;;;;;;;;;3.30;71.52;102120.40;106602;1268;97756;-64
2023/12/19 04:11:54;;;;;;;;;;;;;;;3.25;71.57;102122.38;106549;1268;112074;-66
2023/12/19 04:14:23;;;;;;;;;;;;;;;3.17;71.69;102121.77;106474;1272;108467;-65
2023/12/19 04:16:52;;;;;;;;;;;;;;;3.06;71.64;102122.15;106463;1268;108794;-66
2023/12/19 04:19:21;;;;;;;;;;;;;;;3.01;71.95;102117.36;106471;1269;97847;-69
2023/12/19 04:21:50;;;;;;;;;;;;;;;2.96;71.76;102112.21;106503;1268;97763;-69
2023/12/19 04:24:19;;;;;;;;;;;;;;;2.92;71.96;102111.30;106499;1268;110741;-65
2023/12/19 04:26:48;;;;;;;;;;;;;;;2.87;72.18;102111.64;106521;1268;108549;-66
2023/12/19 04:29:16;;;;;;;;;;;;;;;2.81;72.04;102106.34;106480;1268;108635;-66
2023/12/19 04:31:44;;;;;;;;;;;;;;;2.75;72.03;102108.49;106493;1268;97853;-65
2023/12/19 04:34:13;;;;;;;;;;;;;;;2.70;71.98;102114.36;106494;1268;97944;-65
2023/12/19 04:36:42;;;;;;;;;;;;;;;2.66;72.00;102118.38;106543;1268;110664;-65
2023/12/19 04:39:10;;;;;;;;;;;;;;;2.62;72.05;102119.75;106474;1269;108476;-64
2023/12/19 04:41:38;;;;;;;;;;;;;;;2.61;72.22;102116.23;106501;1269;107071;-65
2023/12/19 04:44:07;;;;;;;;;;;;;;;2.61;72.44;102113.77;106460;1268;97862;-65
2023/12/19 04:46:35;;;;;;;;;;;;;;;2.60;72.42;102122.80;106537;1273;97949;-65
2023/12/19 04:49:03;;;;;;;;;;;;;;;2.60;72.27;102127.61;106519;1268;110622;-67
2023/12/19 04:51:31;;;;;;;;;;;;;;;2.59;72.13;102132.79;106554;1268;108359;-66
2023/12/19 04:54:02;;;;;;;;;;;;;;;2.58;72.34;102135.29;106474;1269;107843;-66
2023/12/19 04:56:30;;;;;;;;;;;;;;;2.56;72.29;102132.36;106482;1268;97749;-65
2023/12/19 04:58:58;;;;;;;;;;;;;;;2.53;72.16;102126.45;106469;1268;97882;-65
2023/12/19 05:01:27;;;;;;;;;;;;;;;2.53;72.31;102124.47;106471;1268;111948;-66
2023/12/19 05:03:55;;;;;;;;;;;;;;;2.53;72.55;102124.48;106463;1268;107952;-65
2023/12/19 05:06:24;;;;;;;;;;;;;;;2.51;72.46;102124.02;106460;1268;108143;-65
2023/12/19 05:08:52;;;;;;;;;;;;;;;2.48;72.74;102127.82;106465;1268;97883;-65
2023/12/19 05:11:20;;;;;;;;;;;;;;;2.46;72.63;102123.27;106528;1268;97865;-64
2023/12/19 05:13:49;;;;;;;;;;;;;;;2.44;72.80;102116.08;106385;1268;112131;-65
2023/12/19 05:16:18;;;;;;;;;;;;;;;2.42;72.84;102117.05;106472;1268;107949;-64
2023/12/19 05:18:46;;;;;;;;;;;;;;;2.39;72.84;102118.90;106457;1269;106894;-65
2023/12/19 05:21:15;;;;;;;;;;;;;;;2.38;72.99;102122.32;106468;1268;97949;-65
2023/12/19 05:23:43;;;;;;;;;;;;;;;2.36;72.86;102125.04;106476;1268;98022;-66
2023/12/19 05:26:11;;;;;;;;;;;;;;;2.33;72.86;102125.27;106524;1268;112248;-67
2023/12/19 05:28:40;;;;;;;;;;;;;;;2.32;73.14;102125.33;106436;1268;108357;-66
2023/12/19 05:31:09;;;;;;;;;;;;;;;2.32;73.22;102123.02;106494;1273;108016;-66
2023/12/19 05:33:38;;;;;;;;;;;;;;;2.31;73.26;102123.60;106490;1270;97951;-64
2023/12/19 05:36:06;;;;;;;;;;;;;;;2.27;73.16;102123.52;106523;1268;97942;-65
2023/12/19 05:38:35;;;;;;;;;;;;;;;2.23;73.32;102119.95;106545;1268;111457;-64
2023/12/19 05:41:04;;;;;;;;;;;;;;;2.21;73.34;102127.45;106502;1268;107827;-65
2023/12/19 05:43:32;;;;;;;;;;;;;;;2.19;73.26;102126.27;106421;1271;108008;-64
2023/12/19 05:46:00;;;;;;;;;;;;;;;2.15;73.40;102134.00;106516;1268;97892;-65
2023/12/19 05:48:28;;;;;;;;;;;;;;;2.14;73.42;102140.05;106517;1270;97748;-63
2023/12/19 05:50:57;;;;;;;;;;;;;;;2.13;73.30;102137.44;106512;1268;111071;-66
2023/12/19 05:53:25;;;;;;;;;;;;;;;2.12;73.46;102135.16;106518;1268;106855;-65
2023/12/19 05:55:53;;;;;;;;;;;;;;;2.12;73.54;102133.56;106462;1268;108271;-67
2023/12/19 05:58:22;;;;;;;;;;;;;;;2.12;73.57;102128.41;106465;1268;97881;-66
2023/12/19 06:00:50;;;;;;;;;;;;;;;2.14;73.83;102126.61;106440;1268;97770;-66
2023/12/19 06:03:18;;;;;;;;;;;;;;;2.15;73.62;102123.73;106473;1273;111206;-65
2023/12/19 06:05:46;;;;;;;;;;;;;;;2.17;73.69;102122.27;106466;1268;107728;-66
2023/12/19 06:08:16;;;;;;;;;;;;;;;2.18;73.64;102117.98;106481;1269;108530;-66
2023/12/19 06:10:44;;;;;;;;;;;;;;;2.19;73.80;102114.23;106392;1272;97768;-68
2023/12/19 06:13:12;;;;;;;;;;;;;;;2.19;73.55;102112.65;106483;1272;98661;-66
2023/12/19 06:15:41;;;;;;;;;;;;;;;2.21;73.68;102114.70;106499;1268;111916;-64
2023/12/19 06:18:09;;;;;;;;;;;;;;;2.22;73.70;102110.25;106405;1268;108504;-66
2023/12/19 06:20:39;;;;;;;;;;;;;;;2.22;73.96;102107.95;106520;1271;107759;-66
2023/12/19 06:23:08;;;;;;;;;;;;;;;2.26;73.99;102107.81;106488;1268;97904;-65
2023/12/19 06:25:38;;;;;;;;;;;;;;;2.35;74.52;102102.94;106496;1268;97948;-65
2023/12/19 06:28:06;;;;;;;;;;;;;;;2.45;74.54;102096.39;106502;1273;112231;-66
2023/12/19 06:30:35;;;;;;;;;;;;;;;2.57;74.86;102097.23;106479;1272;108370;-67
2023/12/19 06:33:06;;;;;;;;;;;;;;;2.69;74.84;102100.72;106464;1272;107807;-65
2023/12/19 06:35:38;;;;;;;;;;;;;;;2.85;75.27;102096.29;106448;1268;97843;-64
2023/12/19 06:38:07;;;;;;;;;;;;;;;2.95;75.11;102087.98;106508;1269;97862;-65
2023/12/19 06:40:36;;;;;;;;;;;;;;;3.04;75.16;102080.56;106570;1270;110191;-65
2023/12/19 06:43:05;;;;;;;;;;;;;;;3.17;75.64;102084.71;106517;1269;107544;-64
2023/12/19 06:45:33;;;;;;;;;;;;;;;3.27;75.64;102080.61;106505;1268;108186;-65
2023/12/19 06:48:02;;;;;;;;;;;;;;;3.38;75.76;102084.65;106535;1273;97934;-66
2023/12/19 06:50:30;;;;;;;;;;;;;;;3.46;75.69;102082.38;106494;1271;97878;-66
2023/12/19 06:52:58;;;;;;;;;;;;;;;3.54;75.32;102075.92;106476;1272;111377;-65
2023/12/19 06:55:27;;;;;;;;;;;;;;;3.59;75.47;102068.78;106459;1269;109049;-67
2023/12/19 06:57:55;;;;;;;;;;;;;;;3.61;75.35;102065.17;106490;1273;108399;-65
2023/12/19 07:00:24;;;;;;;;;;;;;;;3.64;75.49;102068.07;106431;1273;97931;-65
2023/12/19 07:02:52;;;;;;;;;;;;;;;3.76;75.38;102070.44;106481;1273;97872;-65
2023/12/19 07:05:20;;;;;;;;;;;;;;;3.93;75.69;102068.89;106445;1273;111329;-65
2023/12/19 07:07:51;;;;;;;;;;;;;;;4.14;75.73;102066.98;106415;1269;107364;-67
2023/12/19 07:10:19;;;;;;;;;;;;;;;4.32;75.50;102058.44;106464;1268;107076;-67
2023/12/19 07:12:47;;;;;;;;;;;;;;;4.47;75.23;102053.92;106396;1268;97947;-66
2023/12/19 07:15:16;;;;;;;;;;;;;;;4.61;75.24;102050.83;106455;1268;97740;-65
2023/12/19 07:17:46;;;;;;;;;;;;;;;4.79;75.33;102042.95;106423;1268;111913;-65
2023/12/19 07:20:14;;;;;;;;;;;;;;;4.97;75.36;102038.04;106425;1272;108470;-65
2023/12/19 07:22:44;;;;;;;;;;;;;;;5.14;75.19;102030.89;106429;1270;108939;-66
2023/12/19 07:25:13;;;;;;;;;;;;;;;5.30;74.93;102036.02;106492;1268;97929;-65
2023/12/19 07:27:41;;;;;;;;;;;;;;;5.43;74.66;102036.88;106462;1269;97798;-66
2023/12/19 07:30:11;;;;;;;;;;;;;;;5.52;74.52;102040.91;106487;1268;111213;-66
2023/12/19 07:32:39;;;;;;;;;;;;;;;5.58;74.04;102042.05;106470;1269;109045;-67
2023/12/19 07:35:09;;;;;;;;;;;;;;;5.59;73.68;102041.30;106527;1268;108197;-68
2023/12/19 07:37:38;;;;;;;;;;;;;;;5.58;73.27;102038.30;106527;1272;97978;-65
2023/12/19 07:40:10;;;;;;;;;;;;;;;5.55;72.60;102039.34;106501;1273;97764;-66
2023/12/19 07:42:43;;;;;;;;;;;;;;;5.56;72.42;102039.33;106522;1269;110942;-65
2023/12/19 07:45:11;;;;;;;;;;;;;;;5.59;72.24;102042.17;106531;1268;107221;-66
2023/12/19 07:47:40;;;;;;;;;;;;;;;5.63;72.01;102037.18;106514;1268;108132;-65
2023/12/19 07:50:10;;;;;;;;;;;;;;;5.71;71.55;102034.70;106513;1270;97970;-65
2023/12/19 07:52:39;;;;;;;;;;;;;;;5.83;71.55;102033.94;106557;1271;97966;-64
2023/12/19 07:55:10;;;;;;;;;;;;;;;5.93;71.23;102030.61;106470;1272;111119;-64
2023/12/19 07:57:39;;;;;;;;;;;;;;;6.05;70.59;102024.55;106468;1268;108554;-65
2023/12/19 08:00:08;;;;;;;;;;;;;;;6.18;70.22;102023.89;106453;1272;107191;-65
2023/12/19 08:02:42;;;;;;;;;;;;;;;6.33;69.70;102024.19;106495;1271;97906;-66
2023/12/19 08:05:12;;;;;;;;;;;;;;;6.48;69.14;102022.39;106469;1272;97855;-65
2023/12/19 08:07:41;;;;;;;;;;;;;;;6.64;68.92;102014.78;106470;1269;111843;-66
2023/12/19 08:10:09;;;;;;;;;;;;;;;6.86;68.72;102008.65;106465;1272;107833;-66
2023/12/19 08:12:39;;;;;;;;;;;;;;;7.26;67.32;102013.10;106515;1270;107921;-64
2023/12/19 08:15:10;;;;;;;;;;;;;;;7.87;66.93;102006.48;106443;1268;97907;-69
2023/12/19 08:17:38;;;;;;;;;;;;;;;8.46;65.98;101989.48;106534;1272;97862;-68
2023/12/19 08:20:10;;;;;;;;;;;;;;;8.53;65.26;101984.27;106531;1268;112921;-64
2023/12/19 08:22:38;;;;;;;;;;;;;;;8.62;65.16;101989.11;106491;1273;106529;-65
2023/12/19 08:25:06;;;;;;;;;;;;;;;8.86;64.99;101990.50;106516;1271;107604;-64
2023/12/19 08:27:35;;;;;;;;;;;;;;;9.24;64.00;101975.80;106448;1270;97860;-65
2023/12/19 08:30:04;;;;;;;;;;;;;;;9.80;62.75;101965.70;106464;1273;97741;-64
2023/12/19 08:32:32;;;;;;;;;;;;;;;10.12;62.09;101960.96;106526;1272;111304;-64
2023/12/19 08:35:00;;;;;;;;;;;;;;;9.88;61.92;101953.54;106500;1270;108022;-65
2023/12/19 08:37:28;;;;;;;;;;;;;;;9.63;61.84;101951.11;106498;1273;107766;-64
2023/12/19 08:39:59;;;;;;;;;;;;;;;9.70;60.87;101948.85;106487;1271;97978;-65
2023/12/19 08:42:27;;;;;;;;;;;;;;;10.27;60.79;101951.87;106518;1273;97887;-65
2023/12/19 08:44:56;;;;;;;;;;;;;;;10.99;60.87;101942.90;106511;1269;112034;-69
2023/12/19 08:47:25;;;;;;;;;;;;;;;11.64;60.05;101939.63;106508;1271;107810;-68
2023/12/19 08:49:53;;;;;;;;;;;;;;;12.24;59.29;101938.98;106511;1270;108749;-67
2023/12/19 08:52:22;;;;;;;;;;;;;;;12.94;59.52;101936.38;106482;1272;97839;-68
2023/12/19 08:54:54;;;;;;;;;;;;;;;13.64;58.91;101932.20;106575;1270;97836;-65
2023/12/19 08:57:22;;;;;;;;;;;;;;;13.76;58.10;101927.37;106491;1272;110883;-65
2023/12/19 08:59:50;;;;;;;;;;;;;;;13.55;57.66;101935.25;106494;1269;107806;-66
2023/12/19 09:02:18;;;;;;;;;;;;;;;13.26;55.99;101930.73;106436;1270;109277;-64
2023/12/19 09:04:48;;;;;;;;;;;;;;;13.00;56.67;101933.56;106463;1272;97883;-66
2023/12/19 09:07:20;;;;;;;;;;;;;;;12.77;56.79;101932.17;106499;1270;98090;-65
2023/12/19 09:09:49;;;;;;;;;;;;;;;12.64;55.99;101925.24;106494;1270;111713;-64
2023/12/19 09:12:17;;;;;;;;;;;;;;;12.66;56.25;101915.40;106522;1271;107278;-65
2023/12/19 09:14:45;;;;;;;;;;;;;;;12.86;56.75;101909.29;106497;1273;108254;-67
2023/12/19 09:17:13;;;;;;;;;;;;;;;13.23;56.72;101899.77;106410;1274;97882;-70
2023/12/19 09:19:41;;;;;;;;;;;;;;;13.76;55.84;101896.06;106432;1270;97739;-64
2023/12/19 09:22:10;;;;;;;;;;;;;;;14.10;55.47;101886.85;106413;1273;111836;-65
2023/12/19 09:24:38;;;;;;;;;;;;;;;14.27;55.13;101872.59;106446;1272;107341;-65
2023/12/19 09:27:06;;;;;;;;;;;;;;;14.26;54.60;101861.66;106478;1270;108655;-66
2023/12/19 09:29:34;;;;;;;;;;;;;;;14.12;53.16;101865.56;106439;1270;97984;-67
2023/12/19 09:32:05;;;;;;;;;;;;;;;13.89;53.60;101866.08;106503;1270;97878;-67
2023/12/19 09:34:33;;;;;;;;;;;;;;;13.72;53.60;101867.30;106480;1270;111028;-65
2023/12/19 09:37:04;;;;;;;;;;;;;;;13.51;53.33;101871.45;106535;1272;106676;-64
2023/12/19 09:39:32;;;;;;;;;;;;;;;13.25;53.36;101865.05;106470;1270;108254;-65
2023/12/19 09:42:02;;;;;;;;;;;;;;;12.97;52.45;101860.17;106454;1269;97835;-65
2023/12/19 09:44:31;;;;;;;;;;;;;;;12.62;52.91;101857.58;106498;1272;97884;-65
2023/12/19 09:46:59;;;;;;;;;;;;;;;12.64;53.80;101860.44;106423;1270;111801;-66
2023/12/19 09:49:29;;;;;;;;;;;;;;;13.41;54.03;101859.09;106486;1271;108023;-64
2023/12/19 09:51:59;;;;;;;;;;;;;;;14.28;53.11;101856.59;106473;1269;110386;-64
2023/12/19 09:54:27;;;;;;;;;;;;;;;15.02;52.69;101843.59;106433;1272;97743;-64
2023/12/19 09:56:58;;;;;;;;;;;;;;;15.74;50.55;101833.79;106493;1270;97807;-65
2023/12/19 09:59:26;;;;;;;;;;;;;;;16.27;49.92;101832.05;106504;1270;112992;-64
2023/12/19 10:01:56;;;;;;;;;;;;;;;17.04;50.14;101827.33;106484;1271;107935;-64
2023/12/19 10:04:24;;;;;;;;;;;;;;;17.87;49.44;101820.12;106460;1272;108119;-65
2023/12/19 10:06:56;;;;;;;;;;;;;;;18.59;47.30;101812.75;106474;1270;97946;-66
2023/12/19 10:09:25;;;;;;;;;;;;;;;19.29;44.41;101822.25;106505;1270;97730;-66
2023/12/19 10:12:12;;;;;;;;;;;;;;;19.87;44.27;101820.27;106562;1270;111756;-66
2023/12/19 10:14:41;;;;;;;;;;;;;;;20.54;44.49;101816.39;106078;1268;434014;-67
2023/12/19 10:17:17;;;;;;;;;;;;;;;21.12;42.91;101814.02;106460;1272;108808;-67
2023/12/19 10:19:47;;;;;;;;;;;;;;;21.58;42.58;101812.18;106461;1273;97952;-67
2023/12/19 10:22:19;;;;;;;;;;;;;;;22.04;42.07;101810.09;106512;1270;97855;-67
2023/12/19 10:24:47;;;;;;;;;;;;;;;22.40;40.06;101805.73;106473;1270;110902;-68
2023/12/19 10:27:22;;;;;;;;;;;;;;;22.76;40.23;101804.08;106427;1270;108702;-68
2023/12/19 10:29:50;;;;;;;;;;;;;;;23.09;39.24;101796.87;106436;1270;108253;-68
2023/12/19 10:32:21;;;;;;;;;;;;;;;23.16;37.16;101801.23;106451;1270;97871;-66
2023/12/19 10:34:56;;;;;;;;;;;;;;;23.40;36.07;101811.77;106442;1272;97932;-67
2023/12/19 10:37:28;;;;;;;;;;;;;;;23.82;35.27;101804.58;106469;1270;111967;-66
2023/12/19 10:40:10;;;;;;;;;;;;;;;24.21;34.40;101799.89;106407;1270;108252;-67
2023/12/19 10:42:38;;;;;;;;;;;;;;;24.20;32.87;101793.29;106479;1270;108409;-67
2023/12/19 10:45:07;;;;;;;;;;;;;;;24.46;32.17;101786.78;106450;1268;97877;-67
2023/12/19 10:47:35;;;;;;;;;;;;;;;24.30;27.26;101776.96;106535;1269;97884;-66
2023/12/19 10:50:05;;;;;;;;;;;;;;;24.18;28.51;101779.27;106502;1272;111253;-67
2023/12/19 10:52:36;;;;;;;;;;;;;;;24.46;25.86;101781.11;106556;1272;107627;-66
2023/12/19 10:55:08;;;;;;;;;;;;;;;24.23;27.07;101777.72;106410;1271;107187;-66
2023/12/19 10:57:52;;;;;;;;;;;;;;;24.51;27.66;101769.62;106466;1270;97922;-67
2023/12/19 11:00:22;;;;;;;;;;;;;;;24.77;26.64;101764.67;106352;1270;97891;-68
2023/12/19 11:02:53;;;;;;;;;;;;;;;24.94;26.88;101764.13;106500;1268;111309;-68
2023/12/19 11:05:41;;;;;;;;;;;;;;;25.20;25.43;101759.47;106513;1268;107411;-67
2023/12/19 11:08:19;;;;;;;;;;;;;;;25.25;24.36;101747.58;106490;1268;108692;-67
2023/12/19 11:10:50;;;;;;;;;;;;;;;25.09;24.04;101741.49;106501;1268;97873;-67
2023/12/19 11:13:19;;;;;;;;;;;;;;;25.09;24.65;101739.38;106462;1271;97969;-68
2023/12/19 11:15:57;;;;;;;;;;;;;;;24.99;24.25;101726.73;106527;1271;110754;-66
2023/12/19 11:18:43;;;;;;;;;;;;;;;24.85;24.82;101721.77;106444;1270;108786;-67
2023/12/19 11:21:27;;;;;;;;;;;;;;;24.65;24.18;101710.48;106472;1268;108714;-67
2023/12/19 11:23:58;;;;;;;;;;;;;;;24.35;24.10;101703.09;106525;1273;97947;-67
2023/12/19 11:26:32;;;;;;;;;;;;;;;23.97;24.71;101694.40;106453;1268;97857;-67
2023/12/19 11:29:00;;;;;;;;;;;;;;;23.72;24.66;101692.55;106507;1269;111804;-68
2023/12/19 11:31:31;;;;;;;;;;;;;;;23.43;24.19;101681.45;106470;1268;107689;-67
2023/12/19 11:34:20;;;;;;;;;;;;;;;23.03;24.57;101677.63;106401;1268;108327;-66
2023/12/19 11:37:07;;;;;;;;;;;;;;;22.51;25.50;101669.44;106457;1271;97853;-69
2023/12/19 11:39:42;;;;;;;;;;;;;;;22.19;25.66;101665.05;106540;1268;97857;-67
2023/12/19 11:42:30;;;;;;;;;;;;;;;21.76;26.59;101665.80;106556;1273;111794;-66
2023/12/19 11:44:58;;;;;;;;;;;;;;;21.47;25.94;101660.33;106517;1268;108572;-67
2023/12/19 11:47:28;;;;;;;;;;;;;;;21.09;26.82;101658.88;106442;1271;108743;-67
2023/12/19 11:49:56;;;;;;;;;;;;;;;20.78;27.18;101657.33;106489;1268;97867;-67
2023/12/19 11:52:32;;;;;;;;;;;;;;;20.49;27.81;101658.20;106484;1269;97884;-66
2023/12/19 11:55:01;;;;;;;;;;;;;;;20.16;28.09;101655.41;106466;1268;110632;-66
2023/12/19 11:57:30;;;;;;;;;;;;;;;19.93;28.12;101648.44;106525;1268;106858;-66
2023/12/19 12:00:00;;;;;;;;;;;;;;;19.70;27.40;101643.20;106481;1271;107636;-66
2023/12/19 12:02:39;;;;;;;;;;;;;;;19.24;27.99;101636.15;106442;1270;98570;-66
2023/12/19 12:05:17;;;;;;;;;;;;;;;18.81;28.66;101629.19;106506;1273;97736;-66
2023/12/19 12:07:51;;;;;;;;;;;;;;;18.44;28.81;101626.83;106467;1268;110582;-67
2023/12/19 12:10:21;;;;;;;;;;;;;;;18.09;29.23;101634.52;106378;1269;107702;-66
2023/12/19 12:12:51;;;;;;;;;;;;;;;17.71;29.82;101628.16;106451;1271;108007;-66
2023/12/19 12:15:21;;;;;;;;;;;;;;;17.49;30.03;101634.81;106528;1268;97988;-65
2023/12/19 12:17:51;;;;;;;;;;;;;;;17.24;30.41;101639.39;106467;1270;97873;-66
2023/12/19 12:20:25;;;;;;;;;;;;;;;16.99;30.75;101641.05;106383;1268;111478;-67
2023/12/19 12:22:57;;;;;;;;;;;;;;;16.69;30.99;101637.27;106450;1270;106926;-65
2023/12/19 12:25:25;;;;;;;;;;;;;;;16.46;31.40;101635.21;106437;1268;108050;-66
2023/12/19 12:28:14;;;;;;;;;;;;;;;16.24;31.81;101627.14;106322;1270;98466;-66
2023/12/19 12:30:43;;;;;;;;;;;;;;;15.94;32.14;101621.34;106416;1268;97903;-66
2023/12/19 12:33:11;;;;;;;;;;;;;;;15.71;32.62;101619.90;106464;1268;110983;-66
2023/12/19 12:35:40;;;;;;;;;;;;;;;15.48;33.02;101615.50;106423;1269;107996;-65
2023/12/19 12:38:16;;;;;;;;;;;;;;;15.22;33.36;101611.41;106354;1268;107594;-66
2023/12/19 12:40:53;;;;;;;;;;;;;;;14.94;34.01;101606.10;106427;1269;97838;-66